Time;durP1;ratioP1;P1;durP2;ratioP2;P2;SDS_P1;SDS_P2;PMS_P1;PMS_P2;Temp;Humidity;BMP_temperature;BMP_pressure;BME280_temperature;BME280_humidity;BME280_pressure;Samples;Min_cycle;Max_cycle;Signal;HPM_P1;HPM_P2
2022/12/03 00:00:15;;;;;;;27.45;14.63;;;;;;;0.94;100.00;152780.91;5041936;28;20059;-75
2022/12/03 00:02:41;;;;;;;29.10;15.63;;;;;;;0.92;100.00;152777.13;5061025;28;20145;-75
2022/12/03 00:05:07;;;;;;;30.70;14.40;;;;;;;0.89;100.00;152769.47;5028213;28;20744;-75
2022/12/03 00:07:33;;;;;;;27.58;14.07;;;;;;;0.86;100.00;152760.53;5044205;28;20464;-76
2022/12/03 00:09:59;;;;;;;28.85;15.48;;;;;;;0.86;100.00;152760.53;5027421;28;20036;-76
2022/12/03 00:12:25;;;;;;;29.30;15.50;;;;;;;0.84;100.00;152755.44;5043690;28;20051;-75
2022/12/03 00:14:50;;;;;;;33.03;16.02;;;;;;;0.81;100.00;152749.09;5059896;28;20028;-76
2022/12/03 00:17:16;;;;;;;31.92;14.98;;;;;;;0.78;100.00;152741.44;5027201;28;20035;-76
2022/12/03 00:19:41;;;;;;;36.28;17.30;;;;;;;0.74;100.00;152732.50;5028046;28;20040;-75
2022/12/03 00:22:07;;;;;;;31.52;15.77;;;;;;;0.74;100.00;152731.25;5042406;28;20032;-75
2022/12/03 00:24:32;;;;;;;34.20;17.40;;;;;;;0.76;100.00;152737.59;5021737;28;20048;-75
2022/12/03 00:26:58;;;;;;;30.98;14.63;;;;;;;0.74;100.00;152732.50;5010991;28;20401;-76
2022/12/03 00:29:23;;;;;;;31.80;17.42;;;;;;;0.70;100.00;152721.06;5061274;28;20122;-76
2022/12/03 00:31:50;;;;;;;34.67;16.30;;;;;;;0.62;100.00;152700.63;5027133;28;20173;-75
2022/12/03 00:34:16;;;;;;;32.80;16.02;;;;;;;0.64;100.00;152707.03;5045358;28;20113;-75
2022/12/03 00:36:42;;;;;;;28.58;14.98;;;;;;;0.66;100.00;152712.13;5029286;28;20032;-75
2022/12/03 00:39:07;;;;;;;37.25;17.55;;;;;;;0.69;100.00;152719.75;5030288;28;20060;-75
2022/12/03 00:41:33;;;;;;;30.75;15.43;;;;;;;0.65;100.00;152709.56;5048356;28;20446;-76
2022/12/03 00:43:59;;;;;;;33.22;14.85;;;;;;;0.69;100.00;152718.47;5030060;28;20049;-75
2022/12/03 00:46:25;;;;;;;31.83;15.98;;;;;;;0.67;100.00;152714.66;5029981;28;20493;-75
2022/12/03 00:48:50;;;;;;;34.60;17.33;;;;;;;0.65;100.00;152708.31;5027738;28;20048;-75
2022/12/03 00:51:16;;;;;;;31.83;16.38;;;;;;;0.65;100.00;152709.56;5042344;28;20060;-75
2022/12/03 00:53:42;;;;;;;31.45;16.58;;;;;;;0.62;100.00;152700.63;5028152;28;20117;-75
2022/12/03 00:56:08;;;;;;;30.67;16.08;;;;;;;0.58;100.00;152691.72;5028888;28;20036;-75
2022/12/03 00:58:34;;;;;;;31.85;15.48;;;;;;;0.55;100.00;152685.38;5030659;28;20463;-76
2022/12/03 01:01:00;;;;;;;34.08;17.75;;;;;;;0.53;100.00;152679.00;5028370;28;20032;-75
2022/12/03 01:03:26;;;;;;;37.33;17.42;;;;;;;0.61;100.00;152699.38;5028198;28;20047;-76
2022/12/03 01:05:52;;;;;;;36.60;16.83;;;;;;;0.57;100.00;152689.19;5043673;28;20041;-76
2022/12/03 01:08:18;;;;;;;38.55;18.25;;;;;;;0.55;100.00;152685.38;5029956;28;20068;-75
2022/12/03 01:10:44;;;;;;;35.33;17.42;;;;;;;0.48;100.00;152667.50;5010336;28;20094;-75
2022/12/03 01:13:10;;;;;;;36.70;18.55;;;;;;;0.53;100.00;152679.00;5026824;28;20044;-75
2022/12/03 01:15:36;;;;;;;38.20;17.23;;;;;;;0.54;100.00;152682.78;5027420;28;20020;-75
2022/12/03 01:18:04;;;;;;;34.10;17.63;;;;;;;0.47;100.00;152665.00;5028338;28;20605;-75
2022/12/03 01:20:30;;;;;;;35.40;17.35;;;;;;;0.47;100.00;152665.00;5009757;28;20021;-75
2022/12/03 01:22:56;;;;;;;38.35;17.98;;;;;;;0.48;100.00;152667.50;5042889;28;20719;-75
2022/12/03 01:25:22;;;;;;;40.47;19.85;;;;;;;0.48;100.00;152667.50;5022576;28;20035;-75
2022/12/03 01:27:49;;;;;;;37.33;17.27;;;;;;;0.49;100.00;152668.78;5043743;28;20716;-75
2022/12/03 01:30:15;;;;;;;35.97;16.30;;;;;;;0.47;100.00;152665.00;5060695;28;20031;-76
2022/12/03 01:32:40;;;;;;;39.40;19.02;;;;;;;0.46;100.00;152661.16;5042737;28;20062;-75
2022/12/03 01:35:06;;;;;;;38.03;17.80;;;;;;;0.46;100.00;152662.44;5045601;28;20086;-76
2022/12/03 01:37:32;;;;;;;38.70;19.73;;;;;;;0.45;100.00;152659.84;5040206;28;20112;-76
2022/12/03 01:39:57;;;;;;;40.47;17.88;;;;;;;0.50;100.00;152672.59;5005096;28;20033;-76
2022/12/03 01:42:25;;;;;;;33.85;16.65;;;;;;;0.44;100.00;152657.34;5044167;28;20036;-75
2022/12/03 01:44:54;;;;;;;37.72;17.50;;;;;;;0.42;100.00;152652.25;5028099;28;20034;-76
2022/12/03 01:47:25;;;;;;;39.03;19.63;;;;;;;0.41;100.00;152648.41;5028444;28;20038;-75
2022/12/03 01:50:18;;;;;;;34.72;17.38;;;;;;;0.36;100.00;152638.22;5062285;28;20035;-75
2022/12/03 01:52:44;;;;;;;36.10;16.23;;;;;;;0.36;100.00;152636.97;5045711;28;20040;-75
2022/12/03 01:55:13;;;;;;;43.40;18.75;;;;;;;0.31;100.00;152624.22;5046376;28;20143;-76
2022/12/03 01:57:43;;;;;;;40.70;17.80;;;;;;;0.28;100.00;152617.81;5031437;28;20047;-75
2022/12/03 02:00:15;;;;;;;38.20;17.77;;;;;;;0.25;100.00;152610.19;5061960;28;20067;-75
2022/12/03 02:02:41;;;;;;;41.45;18.80;;;;;;;0.23;100.00;152603.81;5025014;28;20037;-75
2022/12/03 02:05:36;;;;;;;39.80;18.50;;;;;;;0.26;100.00;152611.47;5046552;28;20039;-75
2022/12/03 02:08:29;;;;;;;40.08;17.05;;;;;;;0.22;100.00;152602.53;5024599;28;20044;-75
2022/12/03 02:10:58;;;;;;;38.28;15.98;;;;;;;0.20;100.00;152597.44;5045464;28;20036;-74
2022/12/03 02:13:24;;;;;;;37.75;17.63;;;;;;;0.19;100.00;152594.94;5015562;28;20517;-75
2022/12/03 02:15:50;;;;;;;45.60;18.70;;;;;;;0.17;100.00;152589.78;5031967;28;20032;-75
2022/12/03 02:18:17;;;;;;;39.75;18.63;;;;;;;0.20;100.00;152597.44;5045261;28;20047;-76
2022/12/03 02:20:52;;;;;;;41.85;18.70;;;;;;;0.19;100.00;152596.19;5030669;28;20441;-76
2022/12/03 02:23:34;;;;;;;39.50;18.38;;;;;;;0.15;100.00;152584.69;5043754;28;20037;-75
2022/12/03 02:26:00;;;;;;;39.90;17.90;;;;;;;0.14;100.00;152583.44;5046727;28;20040;-76
2022/12/03 02:28:26;;;;;;;36.47;18.48;;;;;;;0.16;100.00;152588.53;5045669;28;20277;-75
2022/12/03 02:30:52;;;;;;;38.10;18.77;;;;;;;0.19;100.00;152596.19;5030206;28;20021;-75
2022/12/03 02:33:18;;;;;;;41.85;17.70;;;;;;;0.17;100.00;152589.78;5030167;28;20071;-75
2022/12/03 02:35:44;;;;;;;41.80;18.85;;;;;;;0.10;100.00;152573.25;5029346;28;20592;-75
2022/12/03 02:38:17;;;;;;;41.95;19.60;;;;;;;0.08;100.00;152566.91;5031510;28;20124;-75
2022/12/03 02:40:45;;;;;;;;;;;;;;;0.09;100.00;152569.44;5063793;28;20051;-75
2022/12/03 02:43:15;;;;;;;39.95;18.30;;;;;;;0.11;100.00;152575.78;5029619;28;19923;-75
2022/12/03 02:45:47;;;;;;;44.10;18.95;;;;;;;0.09;100.00;152569.44;5048191;28;20032;-75
2022/12/03 02:48:18;;;;;;;41.08;17.20;;;;;;;0.08;100.00;152568.16;5030358;28;20032;-76
2022/12/03 02:50:56;;;;;;;45.47;19.85;;;;;;;0.05;100.00;152559.25;5031572;28;20032;-74
2022/12/03 02:53:26;;;;;;;44.50;19.77;;;;;;;0.01;100.00;152549.06;5027976;28;20037;-75
2022/12/03 02:55:55;;;;;;;46.33;18.83;;;;;;;0.01;100.00;152550.31;5044695;28;20074;-75
2022/12/03 02:58:23;;;;;;;44.13;20.15;;;;;;;0.03;100.00;152555.41;5030524;28;20039;-74
2022/12/03 03:00:51;;;;;;;46.08;20.40;;;;;;;-0.02;100.00;152542.66;5030936;28;20568;-74
2022/12/03 03:03:21;;;;;;;44.70;19.02;;;;;;;-0.07;100.00;152531.22;5025620;28;20040;-75
2022/12/03 03:05:48;;;;;;;41.45;19.13;;;;;;;-0.05;100.00;152536.31;5046777;28;20727;-74
2022/12/03 03:08:18;;;;;;;46.90;21.92;;;;;;;-0.06;100.00;152532.50;5046541;28;20040;-75
2022/12/03 03:10:45;;;;;;;46.08;19.60;;;;;;;-0.10;100.00;152522.31;5030607;28;20691;-75
2022/12/03 03:13:17;;;;;;;43.47;20.15;;;;;;;-0.07;100.00;152531.22;5030028;28;20035;-74
2022/12/03 03:15:43;;;;;;;50.05;20.58;;;;;;;-0.13;100.00;152514.66;5011577;28;20040;-74
2022/12/03 03:18:13;;;;;;;46.40;21.60;;;;;;;-0.12;100.00;152517.22;5029691;28;20055;-75
2022/12/03 03:20:40;;;;;;;45.00;20.35;;;;;;;-0.12;100.00;152518.47;5029205;28;20485;-74
2022/12/03 03:23:17;;;;;;;49.00;20.65;;;;;;;-0.13;100.00;152515.97;5022139;28;20047;-76
2022/12/03 03:25:47;;;;;;;49.42;21.45;;;;;;;-0.11;100.00;152519.78;5023263;28;20028;-75
2022/12/03 03:28:14;;;;;;;45.15;19.67;;;;;;;-0.12;100.00;152517.22;5028583;28;20036;-74
2022/12/03 03:30:45;;;;;;;49.20;20.88;;;;;;;-0.10;100.00;152522.31;5030366;28;20541;-75
2022/12/03 03:33:12;;;;;;;44.15;19.98;;;;;;;-0.09;100.00;152524.88;5060433;28;20406;-75
2022/12/03 03:35:38;;;;;;;53.55;21.63;;;;;;;-0.21;100.00;152496.88;5044937;28;20085;-75
2022/12/03 03:38:06;;;;;;;48.80;20.65;;;;;;;-0.27;100.00;152481.53;5028737;28;20067;-75
2022/12/03 03:40:32;;;;;;;51.92;22.17;;;;;;;-0.26;100.00;152482.84;5045317;28;20025;-75
2022/12/03 03:42:59;;;;;;;51.28;22.75;;;;;;;-0.30;100.00;152472.63;5027313;28;20048;-75
2022/12/03 03:45:25;;;;;;;51.47;23.17;;;;;;;-0.30;100.00;152473.94;5043824;28;20116;-75
2022/12/03 03:47:52;;;;;;;49.78;20.98;;;;;;;-0.32;100.00;152467.53;5011302;28;20447;-75
2022/12/03 03:50:18;;;;;;;50.40;22.15;;;;;;;-0.36;100.00;152458.63;5044664;28;20028;-75
2022/12/03 03:52:45;;;;;;;48.03;21.10;;;;;;;-0.37;100.00;152456.09;5015505;28;20059;-75
2022/12/03 03:55:11;;;;;;;48.85;20.73;;;;;;;-0.33;100.00;152466.28;5027627;28;20060;-73
2022/12/03 03:57:38;;;;;;;47.90;21.58;;;;;;;-0.30;100.00;152473.94;5045776;28;20032;-74
2022/12/03 04:00:07;;;;;;;50.03;20.75;;;;;;;-0.32;100.00;152468.84;5029268;28;20033;-75
2022/12/03 04:02:33;;;;;;;46.53;20.83;;;;;;;-0.36;100.00;152457.38;5048807;28;20028;-74
2022/12/03 04:04:59;;;;;;;53.08;21.35;;;;;;;-0.30;100.00;152472.63;5044602;28;20059;-75
2022/12/03 04:07:25;;;;;;;49.75;21.08;;;;;;;-0.37;100.00;152454.84;5011662;28;20042;-75
2022/12/03 04:09:51;;;;;;;50.30;20.40;;;;;;;-0.36;100.00;152457.38;5043796;28;20131;-75
2022/12/03 04:15:02;;;;;;;47.25;21.77;;;;;;;-0.45;100.00;152437.00;5044423;28;20032;-75
2022/12/03 04:17:27;;;;;;;53.42;21.65;;;;;;;-0.49;100.00;152425.53;5059290;28;20036;-75
2022/12/03 04:19:53;;;;;;;56.83;24.70;;;;;;;-0.40;100.00;152449.75;5040906;28;20884;-75
2022/12/03 04:30:36;;;;;;;52.90;21.83;;;;;;;-0.66;100.00;152384.81;5024016;28;20016;-74
2022/12/03 04:35:46;;;;;;;61.85;22.35;;;;;;;-0.73;100.00;152365.72;5057278;28;20174;-75
2022/12/03 04:38:14;;;;;;;65.43;23.40;;;;;;;-0.69;100.00;152377.16;5025560;28;20040;-74
2022/12/03 04:43:24;;;;;;;59.13;22.73;;;;;;;-0.83;100.00;152342.81;5042961;28;20497;-75
2022/12/03 04:45:50;;;;;;;62.20;23.15;;;;;;;-0.87;100.00;152332.59;5028298;28;20051;-74
2022/12/03 04:48:16;;;;;;;62.85;24.35;;;;;;;-0.85;100.00;152337.72;5021734;28;20354;-75
2022/12/03 04:50:41;;;;;;;56.80;22.02;;;;;;;-0.86;100.00;152333.91;5027521;28;20036;-75
2022/12/03 04:53:07;;;;;;;63.22;24.05;;;;;;;-0.84;100.00;152340.25;5027571;28;20071;-75
2022/12/03 04:55:33;;;;;;;54.28;23.48;;;;;;;-0.80;100.00;152350.44;5042803;28;20060;-75
2022/12/03 04:57:59;;;;;;;56.45;22.58;;;;;;;-0.88;100.00;152330.06;5043222;28;20040;-75
2022/12/03 05:00:25;;;;;;;54.03;22.08;;;;;;;-0.88;100.00;152330.06;5060620;28;20060;-74
2022/12/03 05:02:51;;;;;;;57.90;21.88;;;;;;;-0.89;100.00;152326.25;5044164;28;20577;-75
2022/12/03 05:05:17;;;;;;;56.85;23.42;;;;;;;-0.88;100.00;152328.81;5026618;28;20044;-75
2022/12/03 05:07:42;;;;;;;58.58;23.40;;;;;;;-0.87;100.00;152332.59;5027795;28;20401;-75
2022/12/03 05:10:09;;;;;;;56.92;22.88;;;;;;;-0.87;100.00;152332.59;5026459;28;20028;-75
2022/12/03 05:12:35;;;;;;;57.13;22.63;;;;;;;-0.85;100.00;152337.72;5044086;28;20048;-75
2022/12/03 05:15:01;;;;;;;56.88;22.95;;;;;;;-0.90;100.00;152325.00;5026961;28;20035;-75
2022/12/03 05:17:27;;;;;;;55.33;22.85;;;;;;;-0.87;100.00;152331.34;5043389;28;20040;-75
2022/12/03 05:22:37;;;;;;;55.88;22.35;;;;;;;-1.04;100.00;152290.59;5043687;28;20033;-75
2022/12/03 05:25:03;;;;;;;62.85;23.52;;;;;;;-1.02;100.00;152294.41;5028142;28;20040;-75
2022/12/03 05:27:29;;;;;;;57.08;21.77;;;;;;;-1.04;100.00;152290.59;5061641;28;20047;-75
2022/12/03 05:29:54;;;;;;;63.55;22.73;;;;;;;-1.09;100.00;152277.91;5027301;28;20036;-75
2022/12/03 05:32:20;;;;;;;62.42;23.48;;;;;;;-1.13;100.00;152266.44;5025782;28;20040;-75
2022/12/03 05:34:46;;;;;;;55.13;23.60;;;;;;;-1.14;100.00;152263.91;5060090;28;20036;-75
2022/12/03 05:37:11;;;;;;;62.67;25.45;;;;;;;-1.11;100.00;152272.81;5060643;28;20521;-75
2022/12/03 05:39:37;;;;;;;59.58;24.00;;;;;;;-1.13;100.00;152267.72;5043897;28;20040;-75
2022/12/03 05:44:47;;;;;;;58.58;22.88;;;;;;;-1.17;100.00;152257.50;5036729;28;20764;-75
2022/12/03 05:47:13;;;;;;;57.38;23.00;;;;;;;-1.13;100.00;152266.44;5026279;28;20044;-75
2022/12/03 05:49:39;;;;;;;61.72;24.42;;;;;;;-1.14;100.00;152263.91;5042358;28;20040;-75
2022/12/03 05:52:04;;;;;;;60.03;24.83;;;;;;;-1.21;100.00;152248.59;5027317;28;20040;-75
2022/12/03 05:54:30;;;;;;;60.13;22.58;;;;;;;-1.22;100.00;152246.09;5024904;28;20032;-75
2022/12/03 05:56:55;;;;;;;66.70;25.08;;;;;;;-1.22;100.00;152246.09;5058019;28;20040;-75
2022/12/03 05:59:21;;;;;;;53.53;23.45;;;;;;;-1.20;100.00;152251.16;5022486;28;20040;-74
2022/12/03 06:01:47;;;;;;;54.55;22.58;;;;;;;-1.22;100.00;152244.81;5054551;28;20025;-75
2022/12/03 06:04:12;;;;;;;59.42;23.90;;;;;;;-1.23;100.00;152242.25;5025546;28;20032;-74
2022/12/03 06:06:38;;;;;;;56.60;24.50;;;;;;;-1.26;100.00;152235.91;5058321;28;20512;-75
2022/12/03 06:09:03;;;;;;;63.70;23.63;;;;;;;-1.29;100.00;152227.00;5059885;28;20032;-75
2022/12/03 06:11:29;;;;;;;58.63;23.88;;;;;;;-1.32;100.00;152219.34;5041850;28;20039;-75
2022/12/03 06:13:55;;;;;;;58.15;23.75;;;;;;;-1.38;100.00;152206.63;5029950;28;20084;-75
2022/12/03 06:16:20;;;;;;;57.92;24.00;;;;;;;-1.26;100.00;152234.59;5028457;28;20048;-75
2022/12/03 06:18:46;;;;;;;58.67;23.58;;;;;;;-1.35;100.00;152213.00;5047666;28;20036;-75
2022/12/03 06:21:12;;;;;;;55.70;23.85;;;;;;;-1.28;100.00;152230.81;5045060;28;20043;-75
2022/12/03 06:23:43;;;;;;;61.28;21.65;;;;;;;-1.30;100.00;152225.75;5046172;28;20033;-75
2022/12/03 06:26:12;;;;;;;57.83;23.33;;;;;;;-1.30;100.00;152225.75;5064867;28;20040;-75
2022/12/03 06:28:39;;;;;;;58.00;22.90;;;;;;;-1.28;100.00;152230.81;5045341;28;20391;-74
2022/12/03 06:31:05;;;;;;;60.25;23.55;;;;;;;-1.26;100.00;152235.91;5066585;28;20068;-74
2022/12/03 06:33:30;;;;;;;55.40;21.73;;;;;;;-1.25;100.00;152237.16;5066826;28;20024;-74
2022/12/03 06:35:56;;;;;;;60.92;23.10;;;;;;;-1.18;100.00;152256.25;5065192;28;20115;-74
2022/12/03 06:38:22;;;;;;;57.45;21.77;;;;;;;-1.21;100.00;152248.59;5051251;28;20103;-74
2022/12/03 06:40:47;;;;;;;55.10;21.80;;;;;;;-1.18;100.00;152256.25;5048656;28;20033;-74
2022/12/03 06:43:13;;;;;;;58.78;23.30;;;;;;;-1.16;100.00;152258.81;5065805;28;20040;-74
2022/12/03 06:45:38;;;;;;;55.17;22.00;;;;;;;-1.22;100.00;152244.81;5042503;28;20036;-74
2022/12/03 06:48:05;;;;;;;52.25;21.33;;;;;;;-1.23;100.00;152243.53;5045345;28;20048;-74
2022/12/03 06:50:30;;;;;;;50.85;22.35;;;;;;;-1.21;100.00;152247.34;5061118;28;20024;-74
2022/12/03 06:52:56;;;;;;;53.03;22.13;;;;;;;-1.19;100.00;152252.44;5046117;28;20036;-75
2022/12/03 06:55:22;;;;;;;54.22;22.05;;;;;;;-1.24;100.00;152241.00;5044724;28;20028;-74
2022/12/03 06:57:48;;;;;;;52.53;22.55;;;;;;;-1.26;100.00;152235.91;5028973;28;20038;-74
2022/12/03 07:00:14;;;;;;;53.80;22.85;;;;;;;-1.29;100.00;152228.25;5044641;28;20177;-74
2022/12/03 07:02:40;;;;;;;56.10;24.08;;;;;;;-1.24;100.00;152239.75;5027942;28;20884;-74
2022/12/03 07:05:07;;;;;;;56.90;23.27;;;;;;;-1.26;100.00;152234.59;5062488;28;20036;-74
2022/12/03 07:07:32;;;;;;;51.30;21.35;;;;;;;-1.28;100.00;152229.53;5045278;28;20032;-75
2022/12/03 07:09:58;;;;;;;54.45;22.80;;;;;;;-1.26;100.00;152234.59;5063617;28;20571;-74
2022/12/03 07:12:23;;;;;;;50.20;21.60;;;;;;;-1.28;100.00;152229.53;5026331;28;20083;-75
2022/12/03 07:14:49;;;;;;;53.83;21.88;;;;;;;-1.28;100.00;152230.81;5043735;28;20043;-74
2022/12/03 07:17:15;;;;;;;55.90;23.88;;;;;;;-1.31;100.00;152221.91;5026899;28;20103;-75
2022/12/03 07:19:41;;;;;;;51.30;22.00;;;;;;;-1.31;100.00;152223.19;5063277;28;20033;-74
2022/12/03 07:22:06;;;;;;;52.50;22.05;;;;;;;-1.37;100.00;152209.19;5044204;28;20028;-75
2022/12/03 07:24:32;;;;;;;48.15;22.52;;;;;;;-1.34;100.00;152215.53;5059703;28;20068;-74
2022/12/03 07:26:58;;;;;;;54.08;21.83;;;;;;;-1.39;100.00;152202.84;5012831;28;20110;-74
2022/12/03 07:29:23;;;;;;;58.28;21.90;;;;;;;-1.38;100.00;152205.34;5042801;28;20036;-74
2022/12/03 07:31:49;;;;;;;55.13;22.48;;;;;;;-1.42;100.00;152196.44;5029034;28;20036;-74
2022/12/03 07:34:14;;;;;;;49.13;20.50;;;;;;;-1.30;100.00;152224.44;5062043;28;20124;-74
2022/12/03 07:36:40;;;;;;;55.03;23.20;;;;;;;-1.33;100.00;152216.84;5044463;28;20032;-74
2022/12/03 07:39:06;;;;;;;53.17;21.58;;;;;;;-1.31;100.00;152221.91;5063127;28;20536;-74
2022/12/03 07:41:32;;;;;;;53.30;23.58;;;;;;;-1.27;100.00;152232.09;5045394;28;20454;-74
2022/12/03 07:43:57;;;;;;;57.38;23.67;;;;;;;-1.28;100.00;152230.81;5044740;28;20034;-74
2022/12/03 07:46:23;;;;;;;56.22;22.45;;;;;;;-1.32;100.00;152219.34;5043572;28;20033;-74
2022/12/03 07:48:49;;;;;;;52.17;22.58;;;;;;;-1.32;100.00;152219.34;5059902;28;20044;-74
2022/12/03 07:51:14;;;;;;;57.00;22.75;;;;;;;-1.30;100.00;152224.44;5028224;28;20043;-74
2022/12/03 07:53:40;;;;;;;50.80;22.48;;;;;;;-1.31;100.00;152221.91;5043756;28;20036;-74
2022/12/03 07:56:06;;;;;;;55.70;22.40;;;;;;;-1.27;100.00;152232.09;5045301;28;20426;-74
2022/12/03 07:58:32;;;;;;;52.33;22.98;;;;;;;-1.20;100.00;152251.16;5062326;28;20029;-75
2022/12/03 08:00:58;;;;;;;55.20;23.20;;;;;;;-1.12;100.00;152269.00;5027863;28;20560;-74
2022/12/03 08:03:23;;;;;;;59.90;22.42;;;;;;;-1.07;100.00;152281.72;5043166;28;20048;-75
2022/12/03 08:05:49;;;;;;;54.92;22.98;;;;;;;-1.08;100.00;152280.44;5022271;28;20033;-74
2022/12/03 08:08:15;;;;;;;52.33;22.13;;;;;;;-1.07;100.00;152283.00;5036030;28;20048;-74
2022/12/03 08:10:40;;;;;;;54.13;23.70;;;;;;;-1.05;100.00;152288.06;5028762;28;20221;-74
2022/12/03 08:13:12;;;;;;;49.70;23.00;;;;;;;-1.04;100.00;152290.59;5027122;28;20041;-74
2022/12/03 08:15:38;;;;;;;54.73;21.47;;;;;;;-0.95;100.00;152311.00;5055289;28;20070;-74
2022/12/03 08:18:12;;;;;;;49.50;20.90;;;;;;;-0.93;100.00;152317.34;5020724;28;20292;-74
2022/12/03 08:20:40;;;;;;;53.67;22.40;;;;;;;-0.88;100.00;152330.06;5027466;28;20032;-74
2022/12/03 08:23:12;;;;;;;48.45;21.70;;;;;;;-0.85;100.00;152336.41;5011454;28;20063;-74
2022/12/03 08:25:38;;;;;;;55.43;21.47;;;;;;;-0.88;100.00;152328.81;5044246;28;20040;-74
2022/12/03 08:28:25;;;;;;;47.10;22.25;;;;;;;-0.77;100.00;152356.81;5041355;28;20285;-74
2022/12/03 08:31:18;;;;;;;56.65;22.40;;;;;;;-0.77;100.00;152355.50;5058911;28;20082;-74
2022/12/03 08:33:48;;;;;;;50.53;21.58;;;;;;;-0.73;100.00;152365.72;5043531;28;20402;-74
2022/12/03 08:36:22;;;;;;;53.85;22.00;;;;;;;-0.73;100.00;152367.00;5041791;28;20497;-74
2022/12/03 08:38:54;;;;;;;54.65;21.40;;;;;;;-0.67;100.00;152382.25;5030557;28;20036;-74
2022/12/03 08:44:31;;;;;;;50.83;21.40;;;;;;;-0.56;100.00;152407.75;5026517;28;20886;-74
2022/12/03 08:47:21;;;;;;;45.78;19.17;;;;;;;-0.48;100.00;152429.34;5018445;28;20048;-74
2022/12/03 08:49:56;;;;;;;51.13;21.50;;;;;;;-0.44;100.00;152439.53;5029571;28;20036;-74
2022/12/03 08:52:30;;;;;;;49.38;20.55;;;;;;;-0.38;100.00;152452.28;5026358;28;20037;-74
2022/12/03 08:54:56;;;;;;;52.72;20.73;;;;;;;-0.35;100.00;152459.94;5043043;28;20039;-74
2022/12/03 08:57:31;;;;;;;49.47;20.25;;;;;;;-0.27;100.00;152480.28;5043197;28;20044;-74
2022/12/03 09:00:21;;;;;;;50.40;21.65;;;;;;;-0.18;100.00;152501.94;5028504;28;20451;-74
2022/12/03 09:02:50;;;;;;;47.08;21.10;;;;;;;-0.13;100.00;152515.97;5044384;28;20043;-74
2022/12/03 09:05:20;;;;;;;50.85;22.85;;;;;;;-0.12;100.00;152518.47;5057811;28;20049;-74
2022/12/03 09:07:46;;;;;;;48.63;22.83;;;;;;;-0.14;100.00;152513.38;5061465;28;20036;-74
2022/12/03 09:10:11;;;;;;;43.85;21.30;;;;;;;-0.13;100.00;152515.97;5041522;28;20055;-74
2022/12/03 09:12:37;;;;;;;47.58;21.02;;;;;;;-0.21;100.00;152496.88;5043778;28;20440;-74
2022/12/03 09:15:03;;;;;;;53.58;22.75;;;;;;;-0.24;100.00;152487.94;5042522;28;20048;-74
2022/12/03 09:17:29;;;;;;;49.40;21.98;;;;;;;-0.24;100.00;152489.19;5058152;28;20481;-74
2022/12/03 09:19:54;;;;;;;47.63;21.20;;;;;;;-0.21;100.00;152495.56;5025369;28;20040;-74
2022/12/03 09:22:20;;;;;;;51.10;21.88;;;;;;;-0.26;100.00;152482.84;5060473;28;20027;-74
2022/12/03 09:24:46;;;;;;;50.60;22.38;;;;;;;-0.26;100.00;152482.84;5042227;28;20132;-74
2022/12/03 09:27:11;;;;;;;53.33;22.10;;;;;;;-0.27;100.00;152480.28;5058935;28;20092;-74
2022/12/03 09:29:37;;;;;;;48.58;23.15;;;;;;;-0.26;100.00;152484.13;5042110;28;20824;-74
2022/12/03 09:32:03;;;;;;;50.83;22.15;;;;;;;-0.27;100.00;152481.53;5060313;28;20052;-73
2022/12/03 09:34:31;;;;;;;50.75;22.13;;;;;;;-0.11;100.00;152521.03;5041164;28;20040;-74
2022/12/03 09:36:56;;;;;;;48.13;21.23;;;;;;;-0.02;100.00;152542.66;5043257;28;20040;-74
2022/12/03 09:39:22;;;;;;;48.50;21.92;;;;;;;0.00;100.00;152547.81;5060084;28;20035;-74
2022/12/03 09:41:48;;;;;;;49.40;22.48;;;;;;;0.12;100.00;152577.09;5026018;28;20078;-74
2022/12/03 09:44:14;;;;;;;50.85;22.90;;;;;;;0.23;100.00;152603.81;5057048;28;20032;-74
2022/12/03 09:46:41;;;;;;;52.33;22.05;;;;;;;0.31;100.00;152624.22;5063732;28;20476;-74
2022/12/03 09:49:11;;;;;;;55.60;21.83;;;;;;;0.32;100.00;152628.03;5028538;28;20564;-74
2022/12/03 09:51:36;;;;;;;48.20;22.60;;;;;;;0.32;100.00;152626.75;5053156;28;20394;-74
2022/12/03 09:54:04;;;;;;;49.05;21.45;;;;;;;0.32;100.00;152628.03;5030286;28;20040;-74
2022/12/03 09:56:30;;;;;;;48.13;22.50;;;;;;;0.18;100.00;152592.38;5044653;28;20681;-74
2022/12/03 09:58:56;;;;;;;51.15;21.52;;;;;;;0.19;100.00;152596.19;5063207;28;20036;-74
2022/12/03 10:01:22;;;;;;;46.65;22.77;;;;;;;0.21;100.00;152600.03;5012446;28;20035;-74
2022/12/03 10:03:51;;;;;;;49.13;22.83;;;;;;;0.16;100.00;152588.53;5046032;28;20033;-73
2022/12/03 10:06:20;;;;;;;48.65;24.10;;;;;;;0.16;100.00;152587.28;5063238;28;20565;-74
2022/12/03 10:08:48;;;;;;;48.35;22.25;;;;;;;0.14;100.00;152582.19;5030712;28;20037;-74
2022/12/03 10:11:16;;;;;;;52.65;23.27;;;;;;;0.14;100.00;152583.44;5011713;28;20036;-74
2022/12/03 10:13:42;;;;;;;51.05;22.98;;;;;;;0.19;100.00;152596.19;5063386;28;20063;-74
2022/12/03 10:16:11;;;;;;;47.08;23.08;;;;;;;0.22;100.00;152601.28;5030001;28;20127;-74
2022/12/03 10:18:40;;;;;;;45.25;21.25;;;;;;;0.24;100.00;152606.38;5057711;28;20035;-74
2022/12/03 10:21:24;;;;;;;47.25;21.88;;;;;;;0.16;100.00;152587.28;5046396;28;20035;-74
2022/12/03 10:24:15;;;;;;;44.85;20.85;;;;;;;0.16;100.00;152587.28;5044850;28;20131;-74
2022/12/03 10:26:42;;;;;;;49.10;19.98;;;;;;;0.14;100.00;152583.44;5056449;28;20405;-74
2022/12/03 10:29:22;;;;;;;50.17;20.85;;;;;;;0.14;100.00;152583.44;5030020;28;20051;-74
2022/12/03 10:32:04;;;;;;;45.05;20.60;;;;;;;0.13;100.00;152580.91;5059638;28;20078;-74
2022/12/03 10:34:40;;;;;;;51.33;19.80;;;;;;;0.10;100.00;152573.25;5058615;28;20024;-75
2022/12/03 10:37:17;;;;;;;46.92;20.50;;;;;;;0.17;100.00;152589.78;5046105;28;20560;-74
2022/12/03 10:40:00;;;;;;;47.85;20.35;;;;;;;0.22;100.00;152602.53;5058399;28;20135;-74
2022/12/03 10:42:27;;;;;;;;;;;;;;;0.19;100.00;152596.19;5029066;28;20047;-74
2022/12/03 10:45:19;;;;;;;44.13;18.45;;;;;;;0.30;100.00;152622.94;5031545;28;19916;-74
2022/12/03 10:48:02;;;;;;;48.03;18.30;;;;;;;0.38;100.00;152642.06;5043039;28;20032;-73
2022/12/03 10:50:27;;;;;;;41.20;19.77;;;;;;;0.41;100.00;152648.41;5029587;28;20112;-74
2022/12/03 10:52:53;;;;;;;47.30;21.48;;;;;;;0.42;100.00;152650.97;5022757;28;20041;-74
2022/12/03 10:55:19;;;;;;;48.13;21.65;;;;;;;0.46;100.00;152661.16;5029101;28;20059;-74
2022/12/03 10:57:44;;;;;;;47.63;22.42;;;;;;;0.43;100.00;152654.75;5029218;28;20089;-74
2022/12/03 11:00:15;;;;;;;44.58;21.48;;;;;;;0.41;100.00;152648.41;5028887;28;20037;-74
2022/12/03 11:02:41;;;;;;;41.00;20.10;;;;;;;0.39;100.00;152645.84;5045939;28;20426;-74
2022/12/03 11:05:14;;;;;;;44.08;19.60;;;;;;;0.42;100.00;152652.25;5023048;28;20576;-74
2022/12/03 11:07:41;;;;;;;42.88;20.60;;;;;;;0.46;100.00;152661.16;5063775;28;20024;-74
2022/12/03 11:10:16;;;;;;;43.38;20.10;;;;;;;0.51;100.00;152673.88;5061303;28;20031;-74
2022/12/03 11:13:01;;;;;;;43.95;19.95;;;;;;;0.46;100.00;152661.16;5038352;28;20065;-74
2022/12/03 11:15:42;;;;;;;43.42;20.40;;;;;;;0.49;100.00;152668.78;5027778;28;20043;-74
2022/12/03 11:18:08;;;;;;;46.55;20.50;;;;;;;0.65;100.00;152708.31;5028944;28;20064;-74
2022/12/03 11:20:34;;;;;;;46.10;20.88;;;;;;;0.73;100.00;152728.66;5029267;28;20736;-74
2022/12/03 11:22:59;;;;;;;46.53;20.98;;;;;;;0.67;100.00;152714.66;5060664;28;20052;-74
2022/12/03 11:25:28;;;;;;;41.67;20.15;;;;;;;0.68;100.00;152717.22;5022309;28;20097;-74
2022/12/03 11:28:26;;;;;;;42.78;21.02;;;;;;;0.73;100.00;152729.94;5046482;28;20040;-74
2022/12/03 11:30:52;;;;;;;42.53;18.35;;;;;;;0.85;100.00;152757.97;5009354;28;20460;-74
2022/12/03 11:33:28;;;;;;;47.38;21.40;;;;;;;0.86;100.00;152760.53;5047491;28;20554;-74